Pilot No. 4 — WDA5463 — position and weather

sailwx.info

Track history (hours):
 
Tides and Currents Weather Stations Pressure Air Temp Water Temp Dewpoint Dewpoint Depression Visibility Wind Speed Wind Dir Waves Ship Positions

Pilot No. 4

Owner: P E P Inc, FORT LAUDERDALE, FL. More information available from US FCC via Universal Licensing System and Coast Guard Vessel Documentation Center.

Last reported at 2016-Feb-29 12:29 UTC. Time now 2016-May-05 16:11 UTC.
Position N 26°06' W 080°07'.
Warning: this ship's position is months out of date.

MMSI: 495270931.

Date/timePositionNaut miles runAvg speedWind from/ knotsBaromVisibWave heightAir tempDewpointWater temp
2016-Feb-29 12:29N 26°06' W 080°07'0 0.4
2016-Feb-29 11:34N 26°05' W 080°07'0 0.2
2016-Feb-29 10:33N 26°05' W 080°07'1 0.8
2016-Feb-29 09:14N 26°06' W 080°07'4 5.7
2016-Feb-29 08:33N 26°06' W 080°03'1 1.2
2016-Feb-29 07:33N 26°06' W 080°04'0 0.4
2016-Feb-29 06:33N 26°06' W 080°05'0 0.4
2016-Feb-29 05:33N 26°06' W 080°05'2 0.1
2016-Feb-28 11:33N 26°06' W 080°03'4 3.9
2016-Feb-28 10:32N 26°05' W 080°07'2 2.1
2016-Feb-28 09:33N 26°05' W 080°05'2 0.1
2016-Feb-27 11:34N 26°06' W 080°07'1 0.5
2016-Feb-27 10:33N 26°05' W 080°07'0 0.0
2016-Feb-26 18:33N 26°06' W 080°07'1 0.4
2016-Feb-26 16:33N 26°06' W 080°07'0 0.0
2016-Feb-26 15:06N 26°06' W 080°07'1 1.1
2016-Feb-26 14:33N 26°06' W 080°07'2 1.2
2016-Feb-26 13:04N 26°06' W 080°05'2 3.3
2016-Feb-26 12:33N 26°06' W 080°07'0 0.0
2016-Feb-25 22:33N 26°06' W 080°07'1 0.5
2016-Feb-25 21:33N 26°06' W 080°07'1 0.1
2016-Feb-25 14:33N 26°06' W 080°07'0 0.4
2016-Feb-25 13:33N 26°06' W 080°07'4 1.9
2016-Feb-25 11:34N 26°05' W 080°03'3 3.5
2016-Feb-25 10:34N 26°05' W 080°07'1 1.1
2016-Feb-25 09:33N 26°06' W 080°06'1 1.4
2016-Feb-25 08:33N 26°06' W 080°07'1 0.6
2016-Feb-25 07:33N 26°06' W 080°06'1 0.5
2016-Feb-25 05:32N 26°06' W 080°07'1 1.2
2016-Feb-25 04:33N 26°06' W 080°06'1 0.5
2016-Feb-25 02:34N 26°06' W 080°07'1 0.7
2016-Feb-25 01:33N 26°05' W 080°07'1 1.5
2016-Feb-25 00:33N 26°06' W 080°05'0 0.3
2016-Feb-24 23:33N 26°05' W 080°05'2 1.8
2016-Feb-24 22:33N 26°06' W 080°07'1 0.3
2016-Feb-24 20:17N 26°06' W 080°07'1 1.1
2016-Feb-24 19:33N 26°05' W 080°07'1 0.1
2016-Feb-24 13:07N 26°06' W 080°07'1 1.7
2016-Feb-24 12:33N 26°05' W 080°07'0 0.5
2016-Feb-24 11:33N 26°06' W 080°07'1 0.5
2016-Feb-24 10:33N 26°06' W 080°07'1 1.5
2016-Feb-24 09:34N 26°06' W 080°06'1 0.2
2016-Feb-24 05:33N 26°06' W 080°05'2 0.7
2016-Feb-24 02:27N 26°06' W 080°07'0 0.5
2016-Feb-24 01:33N 26°06' W 080°07'1 1.3
2016-Feb-24 00:33N 26°06' W 080°05'2 0.9
2016-Feb-23 22:33N 26°06' W 080°07'0 0.2
2016-Feb-23 21:33N 26°06' W 080°07'4 4.0
2016-Feb-23 20:33N 26°06' W 080°03'3 2.6
2016-Feb-23 19:33N 26°06' W 080°06'0 0.5
2016-Feb-23 18:33N 26°06' W 080°06'1 1.0
2016-Feb-23 17:33N 26°06' W 080°07'0 0.2
2016-Feb-23 16:33N 26°06' W 080°07'1 0.3
2016-Feb-23 13:33N 26°05' W 080°07'1 1.1
2016-Feb-23 12:33N 26°06' W 080°07'0 0.2
2016-Feb-23 11:13N 26°06' W 080°07'4 6.3
2016-Feb-23 10:33N 26°07' W 080°03'4 4.2
2016-Feb-23 09:33N 26°06' W 080°07'3 2.9
2016-Feb-23 08:33N 26°06' W 080°04'1 0.7
2016-Feb-23 07:33N 26°06' W 080°04'1 1.5
2016-Feb-23 06:34N 26°06' W 080°05'2 1.8
2016-Feb-23 05:33N 26°05' W 080°07'1 0.3
2016-Feb-23 03:10N 26°06' W 080°07'2 3.4
2016-Feb-23 02:33N 26°06' W 080°05'2 2.0
2016-Feb-23 01:33N 26°05' W 080°07'0 0.5
2016-Feb-23 00:33N 26°06' W 080°07'1 0.6
2016-Feb-22 23:34N 26°05' W 080°07'1 0.8
2016-Feb-22 22:18N 26°06' W 080°07'1 1.2
2016-Feb-22 21:33N 26°06' W 080°06'  
Track history (hours):
 
Tides and Currents Weather Stations Pressure Air Temp Water Temp Dewpoint Dewpoint Depression Visibility Wind Speed Wind Dir Waves Ship Positions

Pilot No. 4

Owner: P E P Inc, FORT LAUDERDALE, FL. More information available from US FCC via Universal Licensing System and Coast Guard Vessel Documentation Center.

Last reported at 2016-Feb-29 12:29 UTC. Time now 2016-May-05 16:11 UTC.
Position N 26°06' W 080°07'.
Warning: this ship's position is months out of date.

MMSI: 495270931.

Date/timePositionNaut miles runAvg speedWind from/ knotsBaromVisibWave heightAir tempDewpointWater temp
2016-Feb-29 12:29N 26°06' W 080°07'0 0.4
2016-Feb-29 11:34N 26°05' W 080°07'0 0.2
2016-Feb-29 10:33N 26°05' W 080°07'1 0.8
2016-Feb-29 09:14N 26°06' W 080°07'4 5.7
2016-Feb-29 08:33N 26°06' W 080°03'1 1.2
2016-Feb-29 07:33N 26°06' W 080°04'0 0.4
2016-Feb-29 06:33N 26°06' W 080°05'0 0.4
2016-Feb-29 05:33N 26°06' W 080°05'2 0.1
2016-Feb-28 11:33N 26°06' W 080°03'4 3.9
2016-Feb-28 10:32N 26°05' W 080°07'2 2.1
2016-Feb-28 09:33N 26°05' W 080°05'2 0.1
2016-Feb-27 11:34N 26°06' W 080°07'1 0.5
2016-Feb-27 10:33N 26°05' W 080°07'0 0.0
2016-Feb-26 18:33N 26°06' W 080°07'1 0.4
2016-Feb-26 16:33N 26°06' W 080°07'0 0.0
2016-Feb-26 15:06N 26°06' W 080°07'1 1.1
2016-Feb-26 14:33N 26°06' W 080°07'2 1.2
2016-Feb-26 13:04N 26°06' W 080°05'2 3.3
2016-Feb-26 12:33N 26°06' W 080°07'0 0.0
2016-Feb-25 22:33N 26°06' W 080°07'1 0.5
2016-Feb-25 21:33N 26°06' W 080°07'1 0.1
2016-Feb-25 14:33N 26°06' W 080°07'0 0.4
2016-Feb-25 13:33N 26°06' W 080°07'4 1.9
2016-Feb-25 11:34N 26°05' W 080°03'3 3.5
2016-Feb-25 10:34N 26°05' W 080°07'1 1.1
2016-Feb-25 09:33N 26°06' W 080°06'1 1.4
2016-Feb-25 08:33N 26°06' W 080°07'1 0.6
2016-Feb-25 07:33N 26°06' W 080°06'1 0.5
2016-Feb-25 05:32N 26°06' W 080°07'1 1.2
2016-Feb-25 04:33N 26°06' W 080°06'1 0.5
2016-Feb-25 02:34N 26°06' W 080°07'1 0.7
2016-Feb-25 01:33N 26°05' W 080°07'1 1.5
2016-Feb-25 00:33N 26°06' W 080°05'0 0.3
2016-Feb-24 23:33N 26°05' W 080°05'2 1.8
2016-Feb-24 22:33N 26°06' W 080°07'1 0.3
2016-Feb-24 20:17N 26°06' W 080°07'1 1.1
2016-Feb-24 19:33N 26°05' W 080°07'1 0.1
2016-Feb-24 13:07N 26°06' W 080°07'1 1.7
2016-Feb-24 12:33N 26°05' W 080°07'0 0.5
2016-Feb-24 11:33N 26°06' W 080°07'1 0.5
2016-Feb-24 10:33N 26°06' W 080°07'1 1.5
2016-Feb-24 09:34N 26°06' W 080°06'1 0.2
2016-Feb-24 05:33N 26°06' W 080°05'2 0.7
2016-Feb-24 02:27N 26°06' W 080°07'0 0.5
2016-Feb-24 01:33N 26°06' W 080°07'1 1.3
2016-Feb-24 00:33N 26°06' W 080°05'2 0.9
2016-Feb-23 22:33N 26°06' W 080°07'0 0.2
2016-Feb-23 21:33N 26°06' W 080°07'4 4.0
2016-Feb-23 20:33N 26°06' W 080°03'3 2.6
2016-Feb-23 19:33N 26°06' W 080°06'0 0.5
2016-Feb-23 18:33N 26°06' W 080°06'1 1.0
2016-Feb-23 17:33N 26°06' W 080°07'0 0.2
2016-Feb-23 16:33N 26°06' W 080°07'1 0.3
2016-Feb-23 13:33N 26°05' W 080°07'1 1.1
2016-Feb-23 12:33N 26°06' W 080°07'0 0.2
2016-Feb-23 11:13N 26°06' W 080°07'4 6.3
2016-Feb-23 10:33N 26°07' W 080°03'4 4.2
2016-Feb-23 09:33N 26°06' W 080°07'3 2.9
2016-Feb-23 08:33N 26°06' W 080°04'1 0.7
2016-Feb-23 07:33N 26°06' W 080°04'1 1.5
2016-Feb-23 06:34N 26°06' W 080°05'2 1.8
2016-Feb-23 05:33N 26°05' W 080°07'1 0.3
2016-Feb-23 03:10N 26°06' W 080°07'2 3.4
2016-Feb-23 02:33N 26°06' W 080°05'2 2.0
2016-Feb-23 01:33N 26°05' W 080°07'0 0.5
2016-Feb-23 00:33N 26°06' W 080°07'1 0.6
2016-Feb-22 23:34N 26°05' W 080°07'1 0.8
2016-Feb-22 22:18N 26°06' W 080°07'1 1.2
2016-Feb-22 21:33N 26°06' W 080°06'  

Dump ship's entire track history